sensor_id;sensor_type;location;lat;lon;timestamp;temperature;humidity
34231;DHT22;21574;51.538;-0.084;2022-09-17T15:12:33;23.90;45.40
34231;DHT22;21574;51.538;-0.084;2022-09-17T15:14:59;23.90;45.60
34231;DHT22;21574;51.538;-0.084;2022-09-17T15:17:25;23.90;45.70
34231;DHT22;21574;51.538;-0.084;2022-09-17T15:19:54;23.90;45.80
34231;DHT22;21574;51.538;-0.084;2022-09-17T15:22:27;23.90;45.50
34231;DHT22;21574;51.538;-0.084;2022-09-17T15:24:58;23.80;45.60
34231;DHT22;21574;51.538;-0.084;2022-09-17T15:27:42;23.80;45.50
34231;DHT22;21574;51.538;-0.084;2022-09-17T15:30:15;23.80;45.60
34231;DHT22;21574;51.538;-0.084;2022-09-17T15:32:47;23.80;45.80
34231;DHT22;21574;51.538;-0.084;2022-09-17T15:37:49;23.80;45.70
34231;DHT22;21574;51.538;-0.084;2022-09-17T15:40:35;23.80;45.60
34231;DHT22;21574;51.538;-0.084;2022-09-17T15:43:22;23.80;45.60
34231;DHT22;21574;51.538;-0.084;2022-09-17T15:45:50;23.80;45.60
34231;DHT22;21574;51.538;-0.084;2022-09-17T15:48:34;23.90;45.60
34231;DHT22;21574;51.538;-0.084;2022-09-17T15:51:02;23.80;45.70
34231;DHT22;21574;51.538;-0.084;2022-09-17T15:53:30;23.80;45.80
34231;DHT22;21574;51.538;-0.084;2022-09-17T15:56:13;23.80;45.70
34231;DHT22;21574;51.538;-0.084;2022-09-17T16:08:49;23.80;45.40
34231;DHT22;21574;51.538;-0.084;2022-09-17T16:11:16;23.80;45.40
34231;DHT22;21574;51.538;-0.084;2022-09-17T16:13:42;23.80;45.20
34231;DHT22;21574;51.538;-0.084;2022-09-17T16:16:18;23.80;45.20
34231;DHT22;21574;51.538;-0.084;2022-09-17T16:18:44;23.70;45.30
34231;DHT22;21574;51.538;-0.084;2022-09-17T16:21:11;23.80;45.60
34231;DHT22;21574;51.538;-0.084;2022-09-17T16:23:36;23.70;45.60
34231;DHT22;21574;51.538;-0.084;2022-09-17T16:26:03;23.80;45.70
34231;DHT22;21574;51.538;-0.084;2022-09-17T16:28:29;23.80;45.70
34231;DHT22;21574;51.538;-0.084;2022-09-17T16:30:55;23.80;45.80
34231;DHT22;21574;51.538;-0.084;2022-09-17T16:33:21;23.80;45.80
34231;DHT22;21574;51.538;-0.084;2022-09-17T16:35:47;23.80;45.90
34231;DHT22;21574;51.538;-0.084;2022-09-17T16:38:12;23.80;46.00
34231;DHT22;21574;51.538;-0.084;2022-09-17T16:40:44;23.80;46.30
34231;DHT22;21574;51.538;-0.084;2022-09-17T16:43:14;23.80;45.80
34231;DHT22;21574;51.538;-0.084;2022-09-17T16:45:39;23.80;45.80
34231;DHT22;21574;51.538;-0.084;2022-09-17T16:48:06;23.80;45.80
34231;DHT22;21574;51.538;-0.084;2022-09-17T16:50:32;23.80;45.70
34231;DHT22;21574;51.538;-0.084;2022-09-17T16:52:57;23.80;45.70
34231;DHT22;21574;51.538;-0.084;2022-09-17T16:55:23;23.80;45.60
34231;DHT22;21574;51.538;-0.084;2022-09-17T16:57:49;23.80;45.60
34231;DHT22;21574;51.538;-0.084;2022-09-17T17:00:17;23.80;46.60
34231;DHT22;21574;51.538;-0.084;2022-09-17T17:02:53;23.80;47.70
34231;DHT22;21574;51.538;-0.084;2022-09-17T17:05:22;23.80;47.00
34231;DHT22;21574;51.538;-0.084;2022-09-17T17:07:47;23.80;47.30
34231;DHT22;21574;51.538;-0.084;2022-09-17T17:10:13;23.80;47.20
34231;DHT22;21574;51.538;-0.084;2022-09-17T17:12:39;23.90;47.00
34231;DHT22;21574;51.538;-0.084;2022-09-17T17:15:05;23.90;47.10
34231;DHT22;21574;51.538;-0.084;2022-09-17T17:17:31;23.80;47.10
34231;DHT22;21574;51.538;-0.084;2022-09-17T17:19:57;23.80;46.80
34231;DHT22;21574;51.538;-0.084;2022-09-17T17:22:24;23.90;47.00
34231;DHT22;21574;51.538;-0.084;2022-09-17T17:24:51;23.90;46.80
34231;DHT22;21574;51.538;-0.084;2022-09-17T17:27:16;23.90;47.00
34231;DHT22;21574;51.538;-0.084;2022-09-17T17:29:42;23.90;46.90
34231;DHT22;21574;51.538;-0.084;2022-09-17T17:32:08;23.90;46.90
34231;DHT22;21574;51.538;-0.084;2022-09-17T17:34:34;23.90;47.30
34231;DHT22;21574;51.538;-0.084;2022-09-17T17:36:59;23.90;46.90
34231;DHT22;21574;51.538;-0.084;2022-09-17T17:39:25;23.90;46.80
34231;DHT22;21574;51.538;-0.084;2022-09-17T17:41:50;23.90;47.00
34231;DHT22;21574;51.538;-0.084;2022-09-17T17:44:18;23.90;47.50
34231;DHT22;21574;51.538;-0.084;2022-09-17T17:46:44;23.80;46.90
34231;DHT22;21574;51.538;-0.084;2022-09-17T17:49:09;23.80;47.00
34231;DHT22;21574;51.538;-0.084;2022-09-17T17:51:35;23.80;47.20
34231;DHT22;21574;51.538;-0.084;2022-09-17T17:54:01;23.80;47.00
34231;DHT22;21574;51.538;-0.084;2022-09-17T17:56:26;23.80;47.20
34231;DHT22;21574;51.538;-0.084;2022-09-17T17:58:56;23.80;47.20
34231;DHT22;21574;51.538;-0.084;2022-09-17T18:01:25;23.80;47.50
34231;DHT22;21574;51.538;-0.084;2022-09-17T18:03:58;23.90;47.40
34231;DHT22;21574;51.538;-0.084;2022-09-17T18:06:25;23.80;47.40
34231;DHT22;21574;51.538;-0.084;2022-09-17T18:08:52;23.80;47.40
34231;DHT22;21574;51.538;-0.084;2022-09-17T18:11:18;23.80;47.40
34231;DHT22;21574;51.538;-0.084;2022-09-17T18:13:44;23.80;48.00
34231;DHT22;21574;51.538;-0.084;2022-09-17T18:16:11;23.80;47.60
34231;DHT22;21574;51.538;-0.084;2022-09-17T18:18:42;23.90;47.50
34231;DHT22;21574;51.538;-0.084;2022-09-17T18:21:14;23.80;47.30
34231;DHT22;21574;51.538;-0.084;2022-09-17T18:23:40;23.80;47.60
34231;DHT22;21574;51.538;-0.084;2022-09-17T18:26:18;23.80;47.70
34231;DHT22;21574;51.538;-0.084;2022-09-17T18:28:44;23.80;47.70
34231;DHT22;21574;51.538;-0.084;2022-09-17T18:31:28;23.80;48.60
34231;DHT22;21574;51.538;-0.084;2022-09-17T18:34:13;23.80;47.80
34231;DHT22;21574;51.538;-0.084;2022-09-17T18:36:40;23.80;47.70
34231;DHT22;21574;51.538;-0.084;2022-09-17T18:39:09;23.80;47.60
34231;DHT22;21574;51.538;-0.084;2022-09-17T18:41:37;23.80;47.60
34231;DHT22;21574;51.538;-0.084;2022-09-17T18:44:08;23.80;47.70
34231;DHT22;21574;51.538;-0.084;2022-09-17T18:46:34;23.80;47.70
34231;DHT22;21574;51.538;-0.084;2022-09-17T18:49:00;23.80;47.80
34231;DHT22;21574;51.538;-0.084;2022-09-17T18:51:26;23.80;47.70
34231;DHT22;21574;51.538;-0.084;2022-09-17T18:53:53;23.80;47.50
34231;DHT22;21574;51.538;-0.084;2022-09-17T18:56:24;23.80;47.50
34231;DHT22;21574;51.538;-0.084;2022-09-17T18:58:52;23.80;47.80
34231;DHT22;21574;51.538;-0.084;2022-09-17T19:01:20;23.80;47.60
34231;DHT22;21574;51.538;-0.084;2022-09-17T19:03:46;23.80;47.60
34231;DHT22;21574;51.538;-0.084;2022-09-17T19:06:13;23.80;47.50
34231;DHT22;21574;51.538;-0.084;2022-09-17T19:08:40;23.80;47.50
34231;DHT22;21574;51.538;-0.084;2022-09-17T19:11:06;23.80;47.50
34231;DHT22;21574;51.538;-0.084;2022-09-17T19:13:34;23.80;47.40
34231;DHT22;21574;51.538;-0.084;2022-09-17T19:16:00;23.80;47.50
34231;DHT22;21574;51.538;-0.084;2022-09-17T19:18:27;23.70;47.40
34231;DHT22;21574;51.538;-0.084;2022-09-17T19:21:04;23.70;47.40
34231;DHT22;21574;51.538;-0.084;2022-09-17T19:23:30;23.80;47.40
34231;DHT22;21574;51.538;-0.084;2022-09-17T19:26:03;23.80;47.40
34231;DHT22;21574;51.538;-0.084;2022-09-17T19:28:28;23.70;47.30
34231;DHT22;21574;51.538;-0.084;2022-09-17T19:30:54;23.70;47.30
34231;DHT22;21574;51.538;-0.084;2022-09-17T19:33:20;23.80;47.30
34231;DHT22;21574;51.538;-0.084;2022-09-17T19:35:45;23.70;47.30
34231;DHT22;21574;51.538;-0.084;2022-09-17T19:38:11;23.70;47.50
34231;DHT22;21574;51.538;-0.084;2022-09-17T19:40:37;23.80;47.70
34231;DHT22;21574;51.538;-0.084;2022-09-17T19:43:03;23.80;47.80
34231;DHT22;21574;51.538;-0.084;2022-09-17T19:45:28;23.80;47.50
34231;DHT22;21574;51.538;-0.084;2022-09-17T19:47:54;23.80;47.40
34231;DHT22;21574;51.538;-0.084;2022-09-17T19:50:26;23.80;47.50
34231;DHT22;21574;51.538;-0.084;2022-09-17T19:52:52;23.80;47.50
34231;DHT22;21574;51.538;-0.084;2022-09-17T19:55:17;23.70;47.50
34231;DHT22;21574;51.538;-0.084;2022-09-17T19:57:43;23.80;47.40
34231;DHT22;21574;51.538;-0.084;2022-09-17T20:00:09;23.80;47.50
34231;DHT22;21574;51.538;-0.084;2022-09-17T20:02:38;23.70;47.40
34231;DHT22;21574;51.538;-0.084;2022-09-17T20:05:04;23.80;47.50
34231;DHT22;21574;51.538;-0.084;2022-09-17T20:07:29;23.80;47.50
34231;DHT22;21574;51.538;-0.084;2022-09-17T20:09:55;23.70;47.40
34231;DHT22;21574;51.538;-0.084;2022-09-17T20:12:21;23.70;47.40
34231;DHT22;21574;51.538;-0.084;2022-09-17T20:14:46;23.70;47.40
34231;DHT22;21574;51.538;-0.084;2022-09-17T20:17:12;23.70;47.40
34231;DHT22;21574;51.538;-0.084;2022-09-17T20:19:38;23.70;47.40
34231;DHT22;21574;51.538;-0.084;2022-09-17T20:22:03;23.70;47.30
34231;DHT22;21574;51.538;-0.084;2022-09-17T20:24:29;23.70;47.40
34231;DHT22;21574;51.538;-0.084;2022-09-17T20:26:55;23.70;47.30
34231;DHT22;21574;51.538;-0.084;2022-09-17T20:29:20;23.70;47.30
34231;DHT22;21574;51.538;-0.084;2022-09-17T20:31:46;23.70;47.30
34231;DHT22;21574;51.538;-0.084;2022-09-17T20:34:12;23.70;47.30
34231;DHT22;21574;51.538;-0.084;2022-09-17T20:36:37;23.70;47.40
34231;DHT22;21574;51.538;-0.084;2022-09-17T20:39:05;23.70;47.40
34231;DHT22;21574;51.538;-0.084;2022-09-17T20:41:32;23.70;47.40
34231;DHT22;21574;51.538;-0.084;2022-09-17T20:43:59;23.70;47.40
34231;DHT22;21574;51.538;-0.084;2022-09-17T20:46:25;23.70;47.70
34231;DHT22;21574;51.538;-0.084;2022-09-17T20:48:51;23.70;47.40
34231;DHT22;21574;51.538;-0.084;2022-09-17T20:51:20;23.70;47.30
34231;DHT22;21574;51.538;-0.084;2022-09-17T20:53:46;23.70;47.60
34231;DHT22;21574;51.538;-0.084;2022-09-17T20:56:17;23.70;47.20
34231;DHT22;21574;51.538;-0.084;2022-09-17T20:58:44;23.70;47.10
34231;DHT22;21574;51.538;-0.084;2022-09-17T21:03:49;23.70;47.50
34231;DHT22;21574;51.538;-0.084;2022-09-17T21:06:19;23.70;47.40
34231;DHT22;21574;51.538;-0.084;2022-09-17T21:08:45;23.70;47.50
34231;DHT22;21574;51.538;-0.084;2022-09-17T21:11:12;23.70;47.40
34231;DHT22;21574;51.538;-0.084;2022-09-17T21:13:38;23.70;47.40
34231;DHT22;21574;51.538;-0.084;2022-09-17T21:16:05;23.70;47.40
34231;DHT22;21574;51.538;-0.084;2022-09-17T21:18:31;23.70;47.50
34231;DHT22;21574;51.538;-0.084;2022-09-17T21:21:01;23.70;47.30
34231;DHT22;21574;51.538;-0.084;2022-09-17T21:23:28;23.70;47.40
34231;DHT22;21574;51.538;-0.084;2022-09-17T21:26:05;23.70;47.50
34231;DHT22;21574;51.538;-0.084;2022-09-17T21:28:32;23.70;47.40
34231;DHT22;21574;51.538;-0.084;2022-09-17T21:31:14;23.70;47.40
34231;DHT22;21574;51.538;-0.084;2022-09-17T21:33:41;23.60;47.30
34231;DHT22;21574;51.538;-0.084;2022-09-17T21:36:09;23.60;47.90
34231;DHT22;21574;51.538;-0.084;2022-09-17T21:38:35;23.70;47.80
34231;DHT22;21574;51.538;-0.084;2022-09-17T21:41:04;23.70;47.90
34231;DHT22;21574;51.538;-0.084;2022-09-17T21:43:32;23.70;48.00
34231;DHT22;21574;51.538;-0.084;2022-09-17T21:46:02;23.70;48.10
34231;DHT22;21574;51.538;-0.084;2022-09-17T21:48:30;23.70;48.10
34231;DHT22;21574;51.538;-0.084;2022-09-17T21:51:10;23.60;47.80
34231;DHT22;21574;51.538;-0.084;2022-09-17T21:53:36;23.70;47.90
34231;DHT22;21574;51.538;-0.084;2022-09-17T21:56:08;23.70;47.80
34231;DHT22;21574;51.538;-0.084;2022-09-17T21:58:34;23.60;47.80
34231;DHT22;21574;51.538;-0.084;2022-09-17T22:03:36;23.70;47.80
34231;DHT22;21574;51.538;-0.084;2022-09-17T22:06:07;23.60;47.70
34231;DHT22;21574;51.538;-0.084;2022-09-17T22:08:33;23.70;47.70
34231;DHT22;21574;51.538;-0.084;2022-09-17T22:11:07;23.70;47.60
34231;DHT22;21574;51.538;-0.084;2022-09-17T22:13:34;23.60;47.50
34231;DHT22;21574;51.538;-0.084;2022-09-17T22:16:01;23.70;47.50
34231;DHT22;21574;51.538;-0.084;2022-09-17T22:18:31;23.70;47.50
34231;DHT22;21574;51.538;-0.084;2022-09-17T22:20:57;23.70;47.90
34231;DHT22;21574;51.538;-0.084;2022-09-17T22:23:24;23.70;47.40
34231;DHT22;21574;51.538;-0.084;2022-09-17T22:26:00;23.70;47.20
34231;DHT22;21574;51.538;-0.084;2022-09-17T22:28:26;23.70;47.30
34231;DHT22;21574;51.538;-0.084;2022-09-17T22:30:52;23.70;47.60
34231;DHT22;21574;51.538;-0.084;2022-09-17T22:33:17;23.60;47.30
34231;DHT22;21574;51.538;-0.084;2022-09-17T22:35:43;23.60;47.30
34231;DHT22;21574;51.538;-0.084;2022-09-17T22:38:08;23.70;47.30
34231;DHT22;21574;51.538;-0.084;2022-09-17T22:40:35;23.60;47.20
34231;DHT22;21574;51.538;-0.084;2022-09-17T22:43:01;23.60;47.10
34231;DHT22;21574;51.538;-0.084;2022-09-17T22:45:27;23.60;47.20
34231;DHT22;21574;51.538;-0.084;2022-09-17T22:47:53;23.60;47.10
34231;DHT22;21574;51.538;-0.084;2022-09-17T22:50:19;23.60;47.10
34231;DHT22;21574;51.538;-0.084;2022-09-17T22:52:48;23.60;47.10
34231;DHT22;21574;51.538;-0.084;2022-09-17T22:55:14;23.60;47.00
34231;DHT22;21574;51.538;-0.084;2022-09-17T22:57:39;23.60;47.00
34231;DHT22;21574;51.538;-0.084;2022-09-17T23:00:05;23.50;46.90
34231;DHT22;21574;51.538;-0.084;2022-09-17T23:02:34;23.50;47.00
34231;DHT22;21574;51.538;-0.084;2022-09-17T23:04:59;23.60;47.10
34231;DHT22;21574;51.538;-0.084;2022-09-17T23:07:25;23.60;47.10
34231;DHT22;21574;51.538;-0.084;2022-09-17T23:09:51;23.60;47.10
34231;DHT22;21574;51.538;-0.084;2022-09-17T23:12:17;23.60;47.10
34231;DHT22;21574;51.538;-0.084;2022-09-17T23:14:44;23.60;47.60
34231;DHT22;21574;51.538;-0.084;2022-09-17T23:17:10;23.60;47.10
34231;DHT22;21574;51.538;-0.084;2022-09-17T23:19:35;23.60;47.10
34231;DHT22;21574;51.538;-0.084;2022-09-17T23:22:01;23.60;47.10
34231;DHT22;21574;51.538;-0.084;2022-09-17T23:24:27;23.60;47.10
34231;DHT22;21574;51.538;-0.084;2022-09-17T23:26:52;23.60;47.00
34231;DHT22;21574;51.538;-0.084;2022-09-17T23:29:18;23.60;47.10
34231;DHT22;21574;51.538;-0.084;2022-09-17T23:31:44;23.60;46.90
34231;DHT22;21574;51.538;-0.084;2022-09-17T23:34:09;23.60;47.00
34231;DHT22;21574;51.538;-0.084;2022-09-17T23:36:36;23.60;47.00
34231;DHT22;21574;51.538;-0.084;2022-09-17T23:39:04;23.60;46.90
34231;DHT22;21574;51.538;-0.084;2022-09-17T23:41:38;23.60;46.90
34231;DHT22;21574;51.538;-0.084;2022-09-17T23:44:08;23.60;47.00
34231;DHT22;21574;51.538;-0.084;2022-09-17T23:46:34;23.60;47.00
34231;DHT22;21574;51.538;-0.084;2022-09-17T23:49:01;23.50;46.90
34231;DHT22;21574;51.538;-0.084;2022-09-17T23:51:28;23.50;46.90
34231;DHT22;21574;51.538;-0.084;2022-09-17T23:53:56;23.50;46.80
34231;DHT22;21574;51.538;-0.084;2022-09-17T23:56:23;23.50;46.90
34231;DHT22;21574;51.538;-0.084;2022-09-17T23:58:50;23.50;46.80
